createdAt,value
2022-08-03T00:02:19.661Z,0.80
2022-08-03T00:04:47.973Z,0.93
2022-08-03T00:07:17.673Z,0.90
2022-08-03T00:09:46.024Z,0.88
2022-08-03T00:12:14.968Z,1.05
2022-08-03T00:14:43.434Z,1.50
2022-08-03T00:17:12.384Z,1.83
2022-08-03T00:19:40.943Z,0.70
2022-08-03T00:22:09.261Z,1.15
2022-08-03T00:24:38.828Z,1.13
2022-08-03T00:27:07.014Z,1.10
2022-08-03T00:29:59.427Z,1.17
2022-08-03T00:32:24.129Z,1.42
2022-08-03T00:34:57.927Z,0.93
2022-08-03T00:37:40.873Z,1.75
2022-08-03T00:40:13.617Z,1.30
2022-08-03T00:42:50.687Z,1.45
2022-08-03T00:45:19.634Z,1.40
2022-08-03T00:47:47.864Z,1.45
2022-08-03T00:50:17.355Z,1.33
2022-08-03T00:52:46.003Z,1.20
2022-08-03T00:55:15.764Z,1.25
2022-08-03T00:57:44.884Z,1.45
2022-08-03T01:00:15.676Z,1.00
2022-08-03T01:02:44.185Z,1.13
2022-08-03T01:05:12.815Z,1.30
2022-08-03T01:07:49.574Z,1.55
2022-08-03T01:10:28.424Z,1.30
2022-08-03T01:13:07.013Z,1.38
2022-08-03T01:16:01.164Z,1.17
2022-08-03T01:18:36.024Z,1.10
2022-08-03T01:21:11.094Z,1.50
2022-08-03T01:23:57.884Z,1.77
2022-08-03T01:26:55.153Z,1.30
2022-08-03T01:30:00.983Z,1.10
2022-08-03T01:33:00.186Z,1.15
2022-08-03T01:35:35.482Z,1.25
2022-08-03T01:38:12.993Z,0.90
2022-08-03T01:40:42.784Z,1.15
2022-08-03T01:43:59.082Z,0.77
2022-08-03T01:46:06.773Z,0.80
2022-08-03T01:48:39.323Z,0.60
2022-08-03T01:51:09.203Z,0.60
2022-08-03T01:53:39.284Z,0.70
2022-08-03T01:56:08.844Z,0.50
2022-08-03T01:58:38.803Z,0.60
2022-08-03T02:01:08.167Z,0.32
2022-08-03T02:04:00.253Z,0.90
2022-08-03T02:07:01.351Z,0.70
2022-08-03T02:09:23.255Z,1.10
2022-08-03T02:11:53.243Z,0.57
2022-08-03T02:14:23.696Z,1.00
2022-08-03T02:16:53.043Z,1.23
2022-08-03T02:19:24.443Z,0.60
2022-08-03T02:21:57.250Z,0.47
2022-08-03T02:24:30.695Z,0.90
2022-08-03T02:27:00.882Z,0.88
2022-08-03T02:29:39.231Z,0.55
2022-08-03T02:32:13.337Z,0.40
2022-08-03T02:34:46.333Z,0.80
2022-08-03T02:37:16.052Z,0.60
2022-08-03T02:39:45.963Z,0.50
2022-08-03T02:42:16.831Z,0.57
2022-08-03T02:44:49.537Z,0.50
2022-08-03T02:47:21.370Z,0.70
2022-08-03T02:49:52.888Z,1.67
2022-08-03T02:52:24.440Z,0.70
2022-08-03T02:54:57.272Z,0.50
2022-08-03T02:57:27.892Z,0.80
2022-08-03T02:59:58.152Z,0.30
2022-08-03T03:02:26.883Z,0.63
2022-08-03T03:05:55.137Z,0.38
2022-08-03T03:07:52.034Z,0.68
2022-08-03T03:10:23.187Z,0.40
2022-08-03T03:12:53.513Z,0.70
2022-08-03T03:15:22.224Z,0.40
2022-08-03T03:17:52.352Z,0.47
2022-08-03T03:20:29.534Z,0.30
2022-08-03T03:23:01.193Z,0.40
2022-08-03T03:25:32.142Z,0.60
2022-08-03T03:28:01.293Z,0.68
2022-08-03T03:30:31.003Z,0.38
2022-08-03T03:33:00.207Z,0.80
2022-08-03T03:35:30.332Z,0.35
2022-08-03T03:37:58.587Z,0.50
2022-08-03T03:40:26.781Z,0.60
2022-08-03T03:42:55.281Z,0.40
2022-08-03T03:45:24.682Z,0.30
2022-08-03T03:47:53.422Z,0.65
2022-08-03T03:50:23.525Z,1.13
2022-08-03T03:52:53.437Z,0.77
2022-08-03T03:55:21.684Z,0.57
2022-08-03T03:57:49.832Z,0.50
2022-08-03T04:00:19.713Z,0.60
2022-08-03T04:02:48.101Z,0.70
2022-08-03T04:05:33.873Z,0.57
2022-08-03T04:08:25.142Z,0.82
2022-08-03T04:11:04.173Z,1.08
2022-08-03T04:13:35.288Z,1.10
2022-08-03T04:16:05.503Z,0.63
2022-08-03T04:18:36.374Z,0.80
2022-08-03T04:21:07.111Z,0.80
2022-08-03T04:23:41.481Z,0.70
2022-08-03T04:26:12.341Z,1.00
2022-08-03T04:28:42.591Z,0.80
2022-08-03T04:31:11.471Z,1.20
2022-08-03T04:33:40.953Z,0.40
2022-08-03T04:36:11.944Z,0.77
2022-08-03T04:38:51.900Z,0.90
2022-08-03T04:41:22.142Z,0.63
2022-08-03T04:43:52.922Z,0.73
2022-08-03T04:46:23.661Z,0.60
2022-08-03T04:48:52.344Z,0.47
2022-08-03T04:51:20.551Z,0.95
2022-08-03T04:53:50.312Z,0.60
2022-08-03T04:56:18.832Z,0.57
2022-08-03T04:58:47.102Z,0.50
2022-08-03T05:01:15.827Z,0.43
2022-08-03T05:03:44.612Z,0.50
2022-08-03T05:06:12.811Z,0.60
2022-08-03T05:08:46.110Z,0.50
2022-08-03T05:11:17.523Z,0.45
2022-08-03T05:13:46.446Z,0.52
2022-08-03T05:16:15.391Z,0.80
2022-08-03T05:18:44.216Z,0.80
2022-08-03T05:21:14.107Z,0.50
2022-08-03T05:23:42.505Z,0.75
2022-08-03T05:26:11.872Z,0.70
2022-08-03T05:28:50.670Z,0.80
2022-08-03T05:31:20.422Z,0.70
2022-08-03T05:33:49.359Z,0.55
2022-08-03T05:36:18.232Z,0.98
2022-08-03T05:38:46.703Z,0.90
2022-08-03T05:41:21.290Z,0.50
2022-08-03T05:43:55.005Z,0.47
2022-08-03T05:46:24.038Z,0.60
2022-08-03T05:48:52.593Z,0.50
2022-08-03T05:51:20.923Z,0.50
2022-08-03T05:53:49.142Z,0.43
2022-08-03T05:56:17.262Z,0.40
2022-08-03T05:58:47.830Z,0.40
2022-08-03T06:01:18.092Z,0.57
2022-08-03T06:03:46.437Z,0.40
2022-08-03T06:06:14.963Z,0.57
2022-08-03T06:08:44.007Z,0.60
2022-08-03T06:11:12.842Z,0.90
2022-08-03T06:13:41.195Z,0.55
2022-08-03T06:16:09.683Z,0.40
2022-08-03T06:18:41.622Z,0.40
2022-08-03T06:21:15.224Z,0.47
2022-08-03T06:23:52.758Z,0.40
2022-08-03T06:26:24.356Z,0.50
2022-08-03T06:28:54.165Z,0.40
2022-08-03T06:31:33.142Z,0.45
2022-08-03T06:34:32.505Z,0.57
2022-08-03T06:36:58.469Z,0.30
2022-08-03T06:39:30.507Z,0.25
2022-08-03T06:41:59.065Z,0.30
2022-08-03T06:44:27.216Z,0.63
2022-08-03T06:46:55.843Z,0.52
2022-08-03T06:49:26.098Z,0.43
2022-08-03T06:52:05.826Z,0.30
2022-08-03T06:54:37.073Z,0.30
2022-08-03T06:57:06.659Z,0.50
2022-08-03T07:00:09.187Z,0.65
2022-08-03T07:02:23.316Z,0.30
2022-08-03T07:04:52.803Z,0.38
2022-08-03T07:07:21.276Z,0.30
2022-08-03T07:09:57.814Z,0.60
2022-08-03T07:12:28.098Z,0.32
2022-08-03T07:15:00.873Z,0.40
2022-08-03T07:17:32.024Z,0.85
2022-08-03T07:20:03.715Z,0.30
2022-08-03T07:22:32.135Z,0.40
2022-08-03T07:25:00.805Z,0.20
2022-08-03T07:27:30.327Z,0.38
2022-08-03T07:29:59.614Z,0.20
2022-08-03T07:32:28.608Z,0.40
2022-08-03T07:35:00.518Z,0.50
2022-08-03T07:37:31.893Z,0.40
2022-08-03T07:40:00.632Z,0.60
2022-08-03T07:42:29.373Z,0.28
2022-08-03T07:44:58.324Z,0.30
2022-08-03T07:47:35.371Z,0.28
2022-08-03T07:50:04.993Z,0.20
2022-08-03T07:52:52.041Z,0.40
2022-08-03T07:55:22.385Z,0.32
2022-08-03T07:58:01.313Z,0.40
2022-08-03T08:00:29.771Z,0.50
2022-08-03T08:02:57.873Z,0.38
2022-08-03T08:05:26.492Z,0.30
2022-08-03T08:07:56.275Z,0.20
2022-08-03T08:10:24.692Z,0.57
2022-08-03T08:12:52.919Z,0.50
2022-08-03T08:15:21.300Z,0.43
2022-08-03T08:17:51.882Z,0.35
2022-08-03T08:20:30.449Z,0.50
2022-08-03T08:23:02.861Z,0.30
2022-08-03T08:25:34.162Z,0.20
2022-08-03T08:28:22.276Z,0.43
2022-08-03T08:30:53.144Z,0.38
2022-08-03T08:33:22.983Z,0.30
2022-08-03T08:35:54.334Z,0.32
2022-08-03T08:38:24.294Z,0.30
2022-08-03T08:40:52.515Z,0.20
2022-08-03T08:43:20.624Z,0.35
2022-08-03T08:45:51.175Z,0.35
2022-08-03T08:48:25.575Z,0.40
2022-08-03T08:50:55.329Z,0.40
2022-08-03T08:53:27.865Z,0.20
2022-08-03T08:56:01.333Z,0.20
2022-08-03T08:58:31.924Z,0.20
2022-08-03T09:01:00.376Z,0.30
2022-08-03T09:03:29.855Z,0.30
2022-08-03T09:06:35.692Z,0.40
2022-08-03T09:09:07.485Z,0.35
2022-08-03T09:11:54.560Z,0.35
2022-08-03T09:14:36.632Z,0.40
2022-08-03T09:17:17.023Z,0.13
2022-08-03T09:20:06.072Z,0.30
2022-08-03T09:22:34.554Z,0.20
2022-08-03T09:25:23.777Z,0.20
2022-08-03T09:27:53.476Z,0.30
2022-08-03T09:30:34.292Z,0.22
2022-08-03T09:33:05.113Z,0.30
2022-08-03T09:35:53.146Z,0.38
2022-08-03T09:38:24.304Z,0.30
2022-08-03T09:40:58.992Z,0.43
2022-08-03T09:43:28.523Z,0.30
2022-08-03T09:46:04.504Z,0.30
2022-08-03T09:48:35.140Z,0.55
2022-08-03T09:51:13.152Z,0.43
2022-08-03T09:53:59.669Z,0.40
2022-08-03T09:56:43.902Z,0.30
2022-08-03T09:59:13.691Z,0.22
2022-08-03T10:01:42.967Z,0.20
2022-08-03T10:04:17.317Z,0.40
2022-08-03T10:06:47.109Z,0.30
2022-08-03T10:09:17.149Z,0.35
2022-08-03T10:11:48.742Z,0.30
2022-08-03T10:14:19.960Z,0.25
2022-08-03T10:16:49.544Z,0.22
2022-08-03T10:19:18.295Z,0.10
2022-08-03T10:21:51.183Z,0.13
2022-08-03T10:24:27.122Z,0.20
2022-08-03T10:27:02.383Z,0.20
2022-08-03T10:29:34.406Z,0.20
2022-08-03T10:32:09.522Z,0.32
2022-08-03T10:34:44.535Z,0.30
2022-08-03T10:37:15.540Z,0.20
2022-08-03T10:40:04.041Z,0.30
2022-08-03T10:42:34.822Z,0.50
2022-08-03T10:45:06.822Z,0.30
2022-08-03T10:47:36.464Z,0.25
2022-08-03T10:50:05.952Z,0.03
2022-08-03T10:52:38.239Z,0.30
2022-08-03T10:56:00.053Z,0.20
2022-08-03T10:58:57.717Z,0.40
2022-08-03T11:01:59.285Z,0.20
2022-08-03T11:04:30.483Z,0.20
2022-08-03T11:07:20.538Z,0.13
2022-08-03T11:09:50.876Z,0.20
2022-08-03T11:12:27.813Z,0.20
2022-08-03T11:15:02.601Z,0.40
2022-08-03T11:17:31.134Z,0.20
2022-08-03T11:19:59.490Z,0.50
2022-08-03T11:22:48.501Z,0.63
2022-08-03T11:25:53.559Z,0.30
2022-08-03T11:28:27.052Z,0.35
2022-08-03T11:30:56.682Z,0.20
2022-08-03T11:33:31.521Z,0.20
2022-08-03T11:36:00.971Z,0.47
2022-08-03T11:38:29.662Z,0.63
2022-08-03T11:40:57.843Z,0.40
2022-08-03T11:43:45.459Z,0.40
2022-08-03T11:46:28.383Z,0.40
2022-08-03T11:49:09.912Z,0.57
2022-08-03T11:51:40.674Z,0.40
2022-08-03T11:54:09.451Z,0.40
2022-08-03T11:56:56.523Z,0.40
2022-08-03T11:59:33.893Z,0.93
2022-08-03T12:02:09.045Z,0.30
2022-08-03T12:04:51.453Z,0.50
2022-08-03T12:07:25.009Z,0.82
2022-08-03T12:10:09.923Z,0.82
2022-08-03T12:12:39.668Z,0.80
2022-08-03T12:15:10.102Z,0.80
2022-08-03T12:17:41.693Z,0.77
2022-08-03T12:20:11.962Z,1.05
2022-08-03T12:22:42.021Z,0.90
2022-08-03T12:25:39.601Z,1.15
2022-08-03T12:28:36.719Z,1.20
2022-08-03T12:31:04.412Z,0.50
2022-08-03T12:33:54.241Z,1.03
2022-08-03T12:36:22.543Z,1.05
2022-08-03T12:38:56.609Z,1.10
2022-08-03T12:41:30.552Z,0.90
2022-08-03T12:43:59.552Z,1.65
2022-08-03T12:46:32.762Z,1.17
2022-08-03T12:49:06.571Z,1.48
2022-08-03T12:51:37.172Z,1.10
2022-08-03T12:54:07.057Z,1.08
2022-08-03T12:56:35.812Z,1.20
2022-08-03T12:59:40.662Z,1.20
2022-08-03T13:02:17.718Z,1.13
2022-08-03T13:04:48.905Z,1.13
2022-08-03T13:07:18.427Z,1.17
2022-08-03T13:09:49.223Z,1.15
2022-08-03T13:12:18.483Z,1.00
2022-08-03T13:14:48.639Z,1.00
2022-08-03T13:17:18.051Z,1.15
2022-08-03T13:19:48.914Z,0.93
2022-08-03T13:22:19.543Z,1.10
2022-08-03T13:24:49.875Z,1.20
2022-08-03T13:28:01.781Z,1.00
2022-08-03T13:30:07.302Z,1.13
2022-08-03T13:32:36.018Z,1.08
2022-08-03T13:35:06.651Z,1.35
2022-08-03T13:37:35.544Z,1.20
2022-08-03T13:40:06.251Z,1.25
2022-08-03T13:42:36.254Z,1.20
2022-08-03T13:45:05.912Z,1.25
2022-08-03T13:47:34.073Z,1.15
2022-08-03T13:50:03.047Z,1.40
2022-08-03T13:52:34.462Z,1.20
2022-08-03T13:55:03.695Z,1.13
2022-08-03T13:58:05.130Z,1.02
2022-08-03T14:00:28.072Z,1.40
2022-08-03T14:03:13.818Z,1.38
2022-08-03T14:05:43.175Z,1.05
2022-08-03T14:08:13.072Z,1.65
2022-08-03T14:10:43.493Z,1.00
2022-08-03T14:13:12.805Z,0.70
2022-08-03T14:15:51.187Z,1.20
2022-08-03T14:18:27.779Z,1.30
2022-08-03T14:21:03.414Z,1.35
2022-08-03T14:23:35.834Z,1.00
2022-08-03T14:26:03.955Z,1.30
2022-08-03T14:28:32.213Z,1.08
2022-08-03T14:31:00.553Z,1.20
2022-08-03T14:33:29.398Z,1.00
2022-08-03T14:35:57.681Z,0.93
2022-08-03T14:38:26.093Z,0.95
2022-08-03T14:40:55.685Z,0.90
2022-08-03T14:43:23.966Z,0.80
2022-08-03T14:45:53.666Z,0.80
2022-08-03T14:50:29.596Z,1.00
2022-08-03T14:51:10.804Z,0.90
2022-08-03T14:53:38.876Z,0.80
2022-08-03T14:56:10.713Z,0.70
2022-08-03T14:58:39.706Z,0.70
2022-08-03T15:02:02.425Z,0.73
2022-08-03T15:03:56.833Z,0.60
2022-08-03T15:06:25.034Z,0.88
2022-08-03T15:09:22.606Z,1.10
2022-08-03T15:11:43.812Z,0.80
2022-08-03T15:14:13.550Z,1.08
2022-08-03T15:16:43.042Z,1.13
2022-08-03T15:20:02.118Z,1.20
2022-08-03T15:22:01.040Z,0.80
2022-08-03T15:24:30.212Z,0.70
2022-08-03T15:27:00.041Z,0.90
2022-08-03T15:30:07.257Z,0.95
2022-08-03T15:32:16.925Z,0.70
2022-08-03T15:34:50.336Z,0.75
2022-08-03T15:37:20.692Z,1.15
2022-08-03T15:39:59.537Z,0.90
2022-08-03T15:42:30.832Z,1.20
2022-08-03T15:44:59.223Z,1.23
2022-08-03T15:47:27.785Z,1.13
2022-08-03T15:49:56.221Z,0.93
2022-08-03T15:52:24.552Z,1.05
2022-08-03T15:54:52.621Z,0.98
2022-08-03T15:57:21.765Z,0.90
2022-08-03T15:59:51.856Z,1.10
2022-08-03T16:02:20.025Z,1.40
2022-08-03T16:04:48.233Z,1.02
2022-08-03T16:07:36.763Z,1.38
2022-08-03T16:10:05.702Z,1.15
2022-08-03T16:12:33.873Z,0.98
2022-08-03T16:15:04.052Z,1.38
2022-08-03T16:17:32.533Z,0.80
2022-08-03T16:20:03.350Z,0.88
2022-08-03T16:22:37.223Z,1.13
2022-08-03T16:25:06.133Z,1.00
2022-08-03T16:28:07.288Z,1.17
2022-08-03T16:30:34.374Z,0.90
2022-08-03T16:33:02.783Z,1.20
2022-08-03T16:35:31.101Z,1.00
2022-08-03T16:37:59.664Z,1.25
2022-08-03T16:40:28.135Z,0.80
2022-08-03T16:42:56.242Z,1.17
2022-08-03T16:45:24.818Z,1.00
2022-08-03T16:48:05.993Z,1.42
2022-08-03T16:50:35.343Z,1.17
2022-08-03T16:53:09.137Z,1.33
2022-08-03T16:55:43.232Z,1.17
2022-08-03T16:58:34.825Z,1.17
2022-08-03T17:01:22.054Z,1.30
2022-08-03T17:04:01.393Z,1.30
2022-08-03T17:06:35.314Z,1.17
2022-08-03T17:09:08.462Z,1.00
2022-08-03T17:11:38.822Z,0.98
2022-08-03T17:14:14.365Z,1.40
2022-08-03T17:16:52.295Z,1.13
2022-08-03T17:19:26.301Z,1.17
2022-08-03T17:22:04.775Z,1.20
2022-08-03T17:24:35.102Z,1.58
2022-08-03T17:27:09.009Z,1.70
2022-08-03T17:29:44.989Z,1.30
2022-08-03T17:32:21.309Z,1.30
2022-08-03T17:34:51.502Z,1.00
2022-08-03T17:37:49.875Z,1.83
2022-08-03T17:40:17.963Z,1.17
2022-08-03T17:42:50.645Z,1.20
2022-08-03T17:45:20.332Z,1.50
2022-08-03T17:47:57.437Z,1.55
2022-08-03T17:50:40.328Z,1.60
2022-08-03T17:53:15.363Z,1.63
2022-08-03T17:56:07.685Z,1.50
2022-08-03T17:58:59.533Z,1.50
2022-08-03T18:02:05.618Z,2.00
2022-08-03T18:04:55.246Z,1.70
2022-08-03T18:07:41.352Z,1.75
2022-08-03T18:10:11.454Z,1.60
2022-08-03T18:12:51.900Z,1.30
2022-08-03T18:15:28.639Z,1.80
2022-08-03T18:18:02.473Z,1.85
2022-08-03T18:20:40.879Z,1.40
2022-08-03T18:23:36.403Z,1.73
2022-08-03T18:26:10.730Z,1.70
2022-08-03T18:28:41.690Z,1.42
2022-08-03T18:31:12.015Z,1.50
2022-08-03T18:34:16.482Z,1.33
2022-08-03T18:36:31.944Z,1.40
2022-08-03T18:39:04.510Z,1.02
2022-08-03T18:41:35.121Z,1.00
2022-08-03T18:44:08.022Z,1.02
2022-08-03T18:46:47.655Z,1.17
2022-08-03T18:49:29.230Z,1.05
2022-08-03T18:52:05.151Z,0.90
2022-08-03T18:55:02.790Z,0.95
2022-08-03T18:57:46.386Z,0.85
2022-08-03T19:00:17.491Z,1.42
2022-08-03T19:02:58.729Z,0.77
2022-08-03T19:05:53.827Z,0.90
2022-08-03T19:08:18.862Z,0.77
2022-08-03T19:10:57.802Z,0.70
2022-08-03T19:13:36.137Z,0.75
2022-08-03T19:16:09.440Z,1.00
2022-08-03T19:18:43.253Z,0.93
2022-08-03T19:24:05.569Z,0.90
2022-08-03T19:26:41.287Z,0.70
2022-08-03T19:29:14.980Z,0.70
2022-08-03T19:31:58.892Z,0.68
2022-08-03T19:34:32.783Z,0.70
2022-08-03T19:39:31.713Z,0.73
2022-08-03T19:42:22.781Z,0.70
2022-08-03T19:44:53.302Z,0.47
2022-08-03T19:47:29.075Z,0.70
2022-08-03T19:50:05.642Z,0.80
2022-08-03T19:52:42.406Z,0.82
2022-08-03T19:55:12.765Z,0.90
2022-08-03T19:57:45.998Z,0.60
2022-08-03T20:02:43.572Z,0.68
2022-08-03T20:05:14.909Z,0.93
2022-08-03T20:07:47.817Z,0.77
2022-08-03T20:10:17.795Z,0.80
2022-08-03T20:12:49.202Z,0.77
2022-08-03T20:15:30.940Z,0.85
2022-08-03T20:18:00.125Z,1.13
2022-08-03T20:20:31.406Z,1.17
2022-08-03T20:23:00.853Z,1.00
2022-08-03T20:25:38.102Z,1.38
2022-08-03T20:28:13.827Z,1.17
2022-08-03T20:30:47.306Z,1.33
2022-08-03T20:33:18.420Z,1.00
2022-08-03T20:35:49.335Z,1.00
2022-08-03T20:38:20.333Z,1.00
2022-08-03T20:40:56.293Z,1.02
2022-08-03T20:43:30.759Z,1.27
2022-08-03T20:46:31.701Z,1.08
2022-08-03T20:48:48.697Z,1.20
2022-08-03T20:51:19.938Z,1.17
2022-08-03T20:54:22.783Z,1.30
2022-08-03T20:56:56.382Z,1.33
2022-08-03T20:59:33.629Z,0.98
2022-08-03T21:02:07.672Z,1.20
2022-08-03T21:04:37.803Z,0.98
2022-08-03T21:07:19.122Z,1.20
2022-08-03T21:09:55.466Z,1.30
2022-08-03T21:12:31.783Z,1.17
2022-08-03T21:13:02.096Z,1.58
2022-08-03T21:15:05.242Z,1.20
2022-08-03T21:17:40.869Z,1.35
2022-08-03T21:20:11.806Z,0.90
2022-08-03T21:22:43.583Z,1.30
2022-08-03T21:25:15.132Z,1.27
2022-08-03T21:27:44.301Z,1.10
2022-08-03T21:30:15.414Z,1.13
2022-08-03T21:32:45.430Z,0.93
2022-08-03T21:35:15.763Z,1.02
2022-08-03T21:37:45.132Z,1.00
2022-08-03T21:40:15.742Z,1.10
2022-08-03T21:42:46.444Z,1.40
2022-08-03T21:45:17.742Z,1.40
2022-08-03T21:47:48.445Z,1.45
2022-08-03T21:50:17.923Z,1.30
2022-08-03T21:52:48.290Z,2.10
2022-08-03T21:55:18.570Z,2.45
2022-08-03T21:57:53.464Z,1.52
2022-08-03T22:00:24.764Z,1.80
2022-08-03T22:02:56.091Z,1.50
2022-08-03T22:05:29.174Z,1.90
2022-08-03T22:08:13.682Z,1.73
2022-08-03T22:10:44.238Z,2.28
2022-08-03T22:13:13.931Z,2.15
2022-08-03T22:15:43.563Z,2.22
2022-08-03T22:18:11.803Z,2.20
2022-08-03T22:20:40.005Z,2.05
2022-08-03T22:23:08.752Z,2.45
2022-08-03T22:25:40.960Z,2.38
2022-08-03T22:28:12.422Z,1.65
2022-08-03T22:30:43.775Z,1.90
2022-08-03T22:33:14.152Z,2.63
2022-08-03T22:35:47.995Z,3.50
2022-08-03T22:38:18.008Z,2.30
2022-08-03T22:40:48.345Z,2.00
2022-08-03T22:43:17.207Z,2.70
2022-08-03T22:46:10.138Z,2.60
2022-08-03T22:48:41.288Z,2.60
2022-08-03T22:51:10.914Z,1.80
2022-08-03T22:53:40.727Z,1.77
2022-08-03T22:56:09.522Z,2.10
2022-08-03T22:58:37.872Z,1.63
2022-08-03T23:01:09.273Z,1.83
2022-08-03T23:03:59.782Z,1.63
2022-08-03T23:06:34.944Z,1.65
2022-08-03T23:09:06.035Z,1.50
2022-08-03T23:11:38.083Z,1.42
2022-08-03T23:14:13.563Z,1.30
2022-08-03T23:16:44.973Z,2.00
2022-08-03T23:19:17.160Z,1.45
2022-08-03T23:22:00.673Z,1.13
2022-08-03T23:24:35.909Z,1.02
2022-08-03T23:27:05.504Z,1.60
2022-08-03T23:29:36.343Z,0.93
2022-08-03T23:32:07.424Z,0.95
2022-08-03T23:34:56.785Z,1.00
2022-08-03T23:37:26.949Z,0.98
2022-08-03T23:39:58.025Z,1.02
2022-08-03T23:42:27.582Z,1.00
2022-08-03T23:45:05.424Z,1.17
2022-08-03T23:47:46.985Z,0.82
2022-08-03T23:50:16.042Z,1.40
2022-08-03T23:52:55.714Z,1.73
2022-08-03T23:55:41.551Z,1.15
2022-08-03T23:58:19.383Z,0.85
